createdAt,value
2022-11-27T00:04:46.134Z,22.69
2022-11-27T00:09:48.876Z,22.72
2022-11-27T00:14:55.598Z,22.73
2022-11-27T00:19:58.549Z,22.69
2022-11-27T00:25:01.425Z,22.68
2022-11-27T00:30:06.484Z,22.65
2022-11-27T00:35:10.110Z,22.60
2022-11-27T00:40:13.640Z,22.55
2022-11-27T00:45:17.897Z,22.51
2022-11-27T00:50:20.991Z,22.47
2022-11-27T00:55:23.967Z,22.39
2022-11-27T01:00:28.078Z,22.37
2022-11-27T01:05:30.804Z,22.33
2022-11-27T01:10:33.556Z,22.30
2022-11-27T01:15:37.736Z,22.27
2022-11-27T01:20:40.873Z,22.22
2022-11-27T01:25:43.601Z,22.20
2022-11-27T01:30:47.924Z,22.17
2022-11-27T01:35:58.104Z,22.13
2022-11-27T01:41:01.839Z,22.10
2022-11-27T01:46:07.267Z,22.08
2022-11-27T01:51:10.140Z,22.06
2022-11-27T01:56:13.195Z,22.04
2022-11-27T02:01:17.734Z,22.01
2022-11-27T02:06:20.584Z,22.01
2022-11-27T02:11:31.328Z,22.00
2022-11-27T02:16:47.788Z,21.99
2022-11-27T02:22:02.849Z,21.96
2022-11-27T02:27:34.609Z,21.94
2022-11-27T02:32:43.237Z,21.95
2022-11-27T02:37:50.528Z,21.92
2022-11-27T02:42:58.923Z,21.89
2022-11-27T02:48:05.755Z,21.85
2022-11-27T02:53:13.287Z,21.81
2022-11-27T02:58:21.197Z,21.75
2022-11-27T03:03:29.643Z,21.69
2022-11-27T03:08:38.396Z,21.62
2022-11-27T03:13:45.107Z,21.58
2022-11-27T03:18:59.963Z,21.47
2022-11-27T03:24:02.746Z,21.45
2022-11-27T03:29:10.891Z,21.38
2022-11-27T03:34:16.249Z,21.33
2022-11-27T03:39:20.239Z,21.26
2022-11-27T03:44:30.330Z,21.15
2022-11-27T03:49:48.945Z,21.03
2022-11-27T03:54:58.682Z,20.98
2022-11-27T04:00:04.965Z,20.96
2022-11-27T04:05:10.414Z,20.90
2022-11-27T04:10:13.855Z,20.84
2022-11-27T04:15:16.690Z,20.76
2022-11-27T04:20:20.910Z,20.76
2022-11-27T04:25:24.213Z,20.72
2022-11-27T04:30:26.954Z,20.69
2022-11-27T04:35:31.096Z,20.59
2022-11-27T04:40:33.894Z,20.56
2022-11-27T04:45:36.805Z,20.55
2022-11-27T04:50:40.990Z,20.53
2022-11-27T04:55:43.733Z,20.48
2022-11-27T05:00:46.541Z,20.43
2022-11-27T05:05:57.431Z,20.39
2022-11-27T05:11:02.143Z,20.38
2022-11-27T05:16:05.941Z,20.34
2022-11-27T05:21:10.112Z,20.31
2022-11-27T05:26:12.871Z,20.28
2022-11-27T05:31:15.719Z,20.23
2022-11-27T05:36:20.247Z,20.20
2022-11-27T05:41:23.050Z,20.17
2022-11-27T05:46:25.928Z,20.12
2022-11-27T05:51:30.137Z,20.09
2022-11-27T05:56:32.929Z,20.07
2022-11-27T06:01:35.672Z,20.04
2022-11-27T06:06:39.847Z,20.03
2022-11-27T06:11:43.136Z,19.99
2022-11-27T06:16:45.938Z,19.97
2022-11-27T06:21:50.106Z,19.95
2022-11-27T06:26:53.025Z,19.93
2022-11-27T06:31:55.919Z,19.90
2022-11-27T06:37:00.048Z,19.85
2022-11-27T06:42:03.246Z,19.85
2022-11-27T06:47:06.165Z,19.81
2022-11-27T06:52:10.324Z,19.80
2022-11-27T06:57:14.497Z,19.78
2022-11-27T07:02:17.359Z,19.76
2022-11-27T07:07:21.650Z,19.74
2022-11-27T07:12:24.532Z,19.71
2022-11-27T07:17:27.344Z,19.71
2022-11-27T07:22:33.127Z,19.71
2022-11-27T07:27:35.893Z,19.72
2022-11-27T07:32:38.868Z,19.71
2022-11-27T07:37:43.213Z,19.70
2022-11-27T07:42:46.374Z,19.69
2022-11-27T07:47:49.122Z,19.68
2022-11-27T07:52:53.361Z,19.69
2022-11-27T07:57:56.100Z,19.65
2022-11-27T08:02:59.867Z,19.67
2022-11-27T08:08:05.209Z,19.70
2022-11-27T08:13:08.920Z,19.69
2022-11-27T08:18:11.787Z,19.67
2022-11-27T08:23:15.992Z,19.64
2022-11-27T08:28:18.805Z,19.69
2022-11-27T08:33:21.562Z,19.63
2022-11-27T08:38:26.076Z,19.53
2022-11-27T08:43:29.969Z,19.41
2022-11-27T08:48:32.825Z,18.59
2022-11-27T08:53:37.581Z,18.48
2022-11-27T08:58:41.060Z,18.93
2022-11-27T09:03:44.948Z,19.13
2022-11-27T09:08:49.435Z,19.21
2022-11-27T09:13:52.533Z,19.27
2022-11-27T09:18:55.420Z,19.35
2022-11-27T09:24:01.773Z,19.38
2022-11-27T09:29:04.956Z,19.40
2022-11-27T09:34:07.732Z,19.44
2022-11-27T09:39:13.729Z,19.46
2022-11-27T09:44:28.743Z,19.49
2022-11-27T09:49:42.753Z,19.52
2022-11-27T09:54:54.894Z,19.54
2022-11-27T10:00:02.620Z,19.55
2022-11-27T10:05:18.672Z,19.53
2022-11-27T10:10:37.919Z,19.56
2022-11-27T10:15:48.942Z,19.59
2022-11-27T10:20:57.547Z,19.61
2022-11-27T10:26:08.785Z,19.65
2022-11-27T10:31:15.036Z,19.68
2022-11-27T10:36:23.070Z,19.71
2022-11-27T10:42:01.333Z,19.72
2022-11-27T10:47:02.441Z,19.77
2022-11-27T10:52:05.517Z,19.80
2022-11-27T10:57:51.837Z,19.83
2022-11-27T11:03:01.449Z,19.90
2022-11-27T11:08:06.133Z,20.08
2022-11-27T11:13:19.276Z,20.24
2022-11-27T11:18:24.575Z,20.38
2022-11-27T11:23:31.286Z,20.55
2022-11-27T11:28:43.160Z,20.55
2022-11-27T11:33:54.065Z,20.53
2022-11-27T11:38:57.621Z,20.73
2022-11-27T11:44:03.305Z,20.77
2022-11-27T11:49:08.976Z,20.76
2022-11-27T11:54:26.568Z,20.90
2022-11-27T11:59:45.323Z,20.86
2022-11-27T12:05:04.505Z,20.98
2022-11-27T12:10:16.555Z,20.98
2022-11-27T12:15:27.351Z,20.99
2022-11-27T12:20:50.157Z,20.80
2022-11-27T12:26:05.171Z,20.32
2022-11-27T12:31:22.992Z,19.73
2022-11-27T12:36:51.068Z,19.60
2022-11-27T12:42:01.721Z,19.33
2022-11-27T12:47:12.995Z,19.25
2022-11-27T12:52:20.079Z,18.90
2022-11-27T12:57:28.424Z,18.74
2022-11-27T13:02:37.252Z,18.99
2022-11-27T13:07:47.176Z,19.64
2022-11-27T13:12:57.763Z,20.04
2022-11-27T13:18:12.139Z,20.32
2022-11-27T13:23:15.087Z,20.37
2022-11-27T13:28:26.068Z,20.44
2022-11-27T13:33:38.690Z,20.46
2022-11-27T13:38:42.596Z,20.62
2022-11-27T13:43:48.272Z,20.59
2022-11-27T13:48:56.513Z,20.66
2022-11-27T13:54:13.201Z,20.54
2022-11-27T13:59:18.052Z,20.52
2022-11-27T14:04:22.212Z,20.56
2022-11-27T14:09:36.125Z,20.47
2022-11-27T14:14:39.263Z,20.42
2022-11-27T14:19:46.192Z,20.34
2022-11-27T14:24:56.058Z,20.30
2022-11-27T14:29:59.215Z,20.25
2022-11-27T14:35:03.503Z,20.22
2022-11-27T14:40:14.697Z,20.16
2022-11-27T14:45:20.898Z,20.13
2022-11-27T14:50:25.251Z,20.08
2022-11-27T14:55:34.420Z,20.03
2022-11-27T15:00:37.539Z,19.99
2022-11-27T15:05:41.714Z,19.96
2022-11-27T15:10:44.558Z,19.93
2022-11-27T15:15:57.263Z,19.86
2022-11-27T15:21:03.385Z,19.86
2022-11-27T15:26:14.961Z,19.83
2022-11-27T15:31:26.123Z,19.81
2022-11-27T15:36:38.317Z,19.79
2022-11-27T15:41:51.982Z,19.77
2022-11-27T15:46:57.301Z,19.79
2022-11-27T15:52:01.695Z,19.77
2022-11-27T15:57:04.839Z,19.77
2022-11-27T16:02:10.190Z,19.75
2022-11-27T16:07:16.390Z,19.76
2022-11-27T16:12:19.360Z,19.74
2022-11-27T16:17:22.143Z,19.74
2022-11-27T16:22:26.407Z,19.72
2022-11-27T16:27:29.264Z,19.70
2022-11-27T16:32:32.152Z,19.71
2022-11-27T16:37:36.266Z,19.71
2022-11-27T16:42:39.563Z,19.70
2022-11-27T16:47:42.504Z,19.69
2022-11-27T16:52:52.864Z,19.69
2022-11-27T16:57:57.414Z,19.67
2022-11-27T17:03:00.229Z,19.67
2022-11-27T17:08:04.538Z,19.66
2022-11-27T17:13:07.425Z,19.65
2022-11-27T17:18:11.406Z,19.66
2022-11-27T17:23:15.749Z,19.64
2022-11-27T17:28:18.748Z,19.63
2022-11-27T17:33:21.534Z,19.64
2022-11-27T17:38:25.726Z,19.61
2022-11-27T17:43:30.366Z,19.59
2022-11-27T17:48:34.858Z,19.63
2022-11-27T17:53:39.583Z,19.62
2022-11-27T17:58:44.475Z,19.61
2022-11-27T18:03:49.086Z,19.60
2022-11-27T18:08:55.255Z,19.61
2022-11-27T18:13:58.262Z,19.61
2022-11-27T18:19:04.663Z,19.59
2022-11-27T18:24:25.346Z,19.61
2022-11-27T18:29:28.530Z,19.59
2022-11-27T18:34:31.365Z,19.58
2022-11-27T18:39:36.380Z,19.58
2022-11-27T18:44:44.993Z,19.57
2022-11-27T18:49:49.010Z,19.57
2022-11-27T18:54:53.268Z,19.56
2022-11-27T18:59:56.257Z,19.56
2022-11-27T19:04:59.087Z,19.55
2022-11-27T19:10:03.471Z,19.58
2022-11-27T19:15:07.803Z,19.59
2022-11-27T19:20:11.549Z,19.62
2022-11-27T19:25:15.921Z,19.67
2022-11-27T19:30:19.408Z,19.72
2022-11-27T19:35:25.192Z,19.70
2022-11-27T19:40:32.756Z,19.75
2022-11-27T19:45:37.434Z,19.77
2022-11-27T19:50:40.481Z,19.79
2022-11-27T19:55:44.802Z,19.79
2022-11-27T20:00:48.151Z,19.81
2022-11-27T20:05:54.351Z,19.80
2022-11-27T20:11:01.901Z,19.87
2022-11-27T20:16:08.305Z,19.90
2022-11-27T20:21:14.366Z,19.94
2022-11-27T20:26:21.976Z,19.95
2022-11-27T20:31:26.815Z,20.00
2022-11-27T20:36:31.555Z,20.02
2022-11-27T20:41:35.875Z,20.06
2022-11-27T20:46:39.283Z,20.10
2022-11-27T20:51:42.189Z,20.13
2022-11-27T20:56:47.530Z,20.21
2022-11-27T21:01:50.508Z,20.27
2022-11-27T21:06:53.625Z,20.34
2022-11-27T21:11:57.767Z,20.44
2022-11-27T21:17:04.979Z,20.54
2022-11-27T21:22:09.959Z,20.65
2022-11-27T21:27:14.119Z,20.75
2022-11-27T21:32:18.133Z,20.85
2022-11-27T21:37:23.850Z,20.95
2022-11-27T21:42:29.200Z,21.00
2022-11-27T21:47:32.028Z,21.09
2022-11-27T21:52:35.554Z,21.16
2022-11-27T21:57:40.157Z,21.22
2022-11-27T22:02:44.530Z,21.31
2022-11-27T22:07:47.434Z,21.36
2022-11-27T22:12:51.847Z,21.40
2022-11-27T22:17:54.617Z,21.46
2022-11-27T22:22:57.747Z,21.51
2022-11-27T22:28:01.881Z,21.57
2022-11-27T22:33:07.245Z,21.62
2022-11-27T22:38:10.168Z,21.65
2022-11-27T22:43:14.327Z,21.68
2022-11-27T22:48:17.276Z,21.72
2022-11-27T22:53:20.197Z,21.75
2022-11-27T22:58:28.796Z,21.79
2022-11-27T23:03:33.222Z,21.84
2022-11-27T23:08:36.173Z,21.88
2022-11-27T23:13:42.828Z,21.89
2022-11-27T23:18:50.656Z,21.95
2022-11-27T23:23:53.561Z,21.96
2022-11-27T23:28:58.032Z,21.99
2022-11-27T23:34:02.374Z,22.03
2022-11-27T23:39:06.776Z,22.05
2022-11-27T23:44:10.976Z,22.07
2022-11-27T23:49:13.765Z,22.10
2022-11-27T23:54:16.591Z,22.11
2022-11-27T23:59:21.171Z,22.14
